Dehesa (DV1, 283, 6914) Station Data

Red Flag Warning: No
Fire Weather Zone: 250
SDGE Region: Eastern
Lat/Lon: 32.787/-116.835

Observations

Time Wind Speed/Gust Temp(F) RH Fuel Moist Fuel Temp(F) Dewpt(F) Tmax(F) Tmin(F) Accum Precip 10-min Precip SL Press(mb)
5/24 8:30am 201 7 G 11 61° 100% - - 61° 61.8° 54° - - -
5/24 8:20am 221 3 G 7 61° 100% - - 61° 61.8° 54° - - -
5/24 8:10am 192 2 G 4 59° 100% - - 59° 59.9° 54° - - -
5/24 8:00am 268 1 G 4 59° 100% - - 59° 59.9° 54° - - -
5/24 7:50am 325 4 G 6 57° 100% - - 57° 59.9° 54° - - -
5/24 7:40am 312 2 G 3 57° 100% - - 57° 59.9° 54° - - -
5/24 7:30am 318 3 G 4 56° 100% - - 56° 59.9° 54° - - -
5/24 7:20am 321 1 G 4 56° 100% - - 56° 59.9° 54° - - -
5/24 7:10am 9 3 G 5 56° 100% - - 56° 59.9° 54° - - -
5/24 7:00am 44 3 G 6 56° 100% - - 56° 59.9° 54° - - -
5/24 6:50am 352 2 G 6 56° 100% - - 56° 59.9° 54° - - -
5/24 6:40am 284 3 G 8 56° 100% - - 56° 59.9° 54° - - -
5/24 6:30am 273 5 G 11 56° 100% - - 56° 59.9° 54° - - -
5/24 6:20am 254 5 G 11 55° 100% - - 56° 59.9° 54° - - -
5/24 6:10am 198 5 G 10 55° 100% - - 55° 59.9° 54° - - -
5/24 6:00am 198 7 G 16 55° 100% - - 55° 59.9° 54° - - -
5/24 5:50am 141 2 G 6 54° 100% - - 54° 59.9° 54° - - -
5/24 5:40am 79 3 G 5 54° 100% - - 55° 59.9° 54.3° - - -
5/24 5:30am 77 3 G 4 55° 100% - - 55° 59.9° 54.5° - - -
5/24 5:20am 63 2 G 4 55° 100% - - 55° 59.9° 55° - - -
5/24 5:10am 133 1 G 2 56° 100% - - 56° 59.9° 55.3° - - -
5/24 5:00am 13 2 G 4 56° 100% - - 56° 59.9° 55.4° - - -
5/24 4:50am 339 3 G 5 56° 100% - - 56° 59.9° 55.6° - - -
5/24 4:40am 15 4 G 6 56° 100% - - 56° 59.9° 55.6° - - -
5/24 4:30am 3 3 G 5 56° 100% - - 56° 59.9° 55.6° - - -
5/24 4:20am 345 4 G 5 56° 100% - - 56° 59.9° 55.6° - - -
5/24 4:10am 14 2 G 4 57° 100% - - 57° 59.9° 55.6° - - -
5/24 4:00am 36 2 G 4 57° 100% - - 57° 59.9° 55.6° - - -
5/24 3:50am 13 1 G 2 57° 100% - - 57° 59.9° 55.6° - - -
5/24 3:40am 349 2 G 4 57° 100% - - 57° 59.9° 55.6° - - -
5/24 3:30am 19 2 G 4 57° 100% - - 57° 59.9° 55.6° - - -
5/24 3:20am 137 3 G 5 57° 100% - - 57° 59.9° 55.6° - - -
5/24 3:10am 143 2 G 3 56° 100% - - 56° 59.9° 55.6° - - -
5/24 3:00am 181 2 G 4 56° 100% - - 57° 59.9° 56.1° - - -
5/24 2:50am 197 2 G 4 57° 100% - - 57° 59.9° 56.4° - - -
5/24 2:40am 93 1 G 3 57° 100% - - 57° 59.9° 57° - - -
5/24 2:30am 143 1 G 2 57° 100% - - 57° 59.9° 57.2° - - -
5/24 2:20am 209 2 G 4 57° 100% - - 57° 59.9° 57.2° - - -
5/24 2:10am 205 2 G 3 58° 100% - - 58° 59.9° 57.3° - - -
5/24 2:00am 131 1 G 2 58° 100% - - 58° 59.9° 57.3° - - -
5/24 1:50am 177 2 G 5 58° 100% - - 58° 59.9° 57.3° - - -
5/24 1:40am 186 3 G 5 58° 100% - - 58° 59.9° 57.3° - - -
5/24 1:30am 194 3 G 5 58° 100% - - 58° 59.9° 57.5° - - -
5/24 1:20am 215 1 G 3 58° 100% - - 58° 59.9° 58° - - -
5/24 1:10am 115 0 G 1 59° 100% - - 59° 59.9° 58.1° - - -
5/24 1:00am 111 1 G 2 59° 100% - - 59° 59.9° 58.3° - - -
5/24 12:50am 67 1 G 2 59° 100% - - 59° 59.9° 58.6° - - -
5/24 12:40am 325 1 G 1 59° 100% - - 59° 59.9° 59° - - -
5/24 12:30am 146 0 G 1 59° 100% - - 59° 59.9° 59.1° - - -
5/24 12:20am 57 1 G 3 60° 100% - - 60° 59.9° 59.3° - - -
5/24 12:10am 135 2 G 3 60° 100% - - 60° 59.9° 59.4° - - -
5/24 12:00am 154 3 G 5 60° 100% - - 60° 87° 53.2° - - -
5/23 11:50pm 180 5 G 9 60° 100% - - 60° 87° 53.2° - - -
5/23 11:40pm 173 4 G 8 60° 100% - - 60° 87° 53.2° - - -
5/23 11:30pm 181 4 G 6 61° 100% - - 61° 87° 53.2° - - -
5/23 11:20pm 200 5 G 7 61° 100% - - 61° 87° 53.2° - - -
5/23 11:10pm 205 5 G 8 62° 98% - - 61° 87° 53.2° - - -
5/23 11:00pm 215 4 G 8 63° 82% - - 58° 87° 53.2° - - -
5/23 10:50pm 180 2 G 4 64° 78% - - 57° 87° 53.2° - - -
5/23 10:40pm 183 0 G 1 65° 76% - - 57° 87° 53.2° - - -
5/23 10:30pm 166 0 G 1 65° 75% - - 57° 87° 53.2° - - -
5/23 10:20pm 133 0 G 1 65° 75% - - 57° 87° 53.2° - - -
5/23 10:10pm 133 1 G 2 66° 72% - - 56° 87° 53.2° - - -
5/23 10:00pm 78 1 G 1 66° 68% - - 56° 87° 53.2° - - -
5/23 9:50pm 79 2 G 4 67° 69% - - 56° 87° 53.2° - - -
5/23 9:40pm 108 2 G 3 67° 67% - - 56° 87° 53.2° - - -
5/23 9:30pm 125 2 G 3 67° 68% - - 56° 87° 53.2° - - -
5/23 9:20pm 146 2 G 4 67° 68% - - 56° 87° 53.2° - - -
5/23 9:10pm 174 3 G 8 67° 66% - - 56° 87° 53.2° - - -
5/23 9:00pm 187 5 G 8 68° 64% - - 56° 87° 53.2° - - -
5/23 8:50pm 188 6 G 10 69° 62% - - 55° 87° 53.2° - - -
5/23 8:40pm 184 4 G 8 69° 61% - - 55° 87° 53.2° - - -
5/23 8:30pm 181 4 G 6 70° 59% - - 55° 87° 53.2° - - -
5/23 8:20pm 202 5 G 8 70° 58% - - 55° 87° 53.2° - - -
5/23 8:10pm 219 5 G 8 71° 57% - - 55° 87° 53.2° - - -
5/23 8:00pm 212 4 G 6 71° 56% - - 55° 87° 53.2° - - -
5/23 7:50pm 210 4 G 7 72° 54% - - 55° 87° 53.2° - - -
5/23 7:40pm 218 4 G 8 72° 53% - - 54° 87° 53.2° - - -
5/23 7:30pm 200 3 G 5 73° 52% - - 54° 87° 53.2° - - -
5/23 7:20pm 222 3 G 7 74° 49% - - 54° 87° 53.2° - - -
5/23 7:10pm 226 3 G 6 74° 49% - - 54° 87° 53.2° - - -
5/23 7:00pm 207 4 G 9 74° 49% - - 54° 87° 53.2° - - -
5/23 6:50pm 205 5 G 10 75° 48% - - 54° 87° 53.2° - - -
5/23 6:40pm 236 4 G 10 76° 46% - - 54° 87° 53.2° - - -
5/23 6:30pm 239 5 G 11 77° 45% - - 54° 87° 53.2° - - -
5/23 6:20pm 235 5 G 12 77° 44% - - 54° 87° 53.2° - - -
5/23 6:10pm 231 5 G 11 78° 43% - - 54° 87° 53.2° - - -
5/23 6:00pm 233 6 G 13 78° 43% - - 54° 87° 53.2° - - -
5/23 5:50pm 211 6 G 12 78° 43% - - 54° 87° 53.2° - - -
5/23 5:40pm 219 5 G 12 79° 40% - - 53° 87° 53.2° - - -
5/23 5:30pm 229 5 G 12 82° 36% - - 52° 87° 53.2° - - -
5/23 5:20pm 228 5 G 13 85° 31% - - 50° 87° 53.2° - - -
5/23 5:10pm 231 6 G 12 85° 28% - - 48° 87° 53.2° - - -
5/23 5:00pm 211 6 G 11 85° 26% - - 46° 87° 53.2° - - -
5/23 4:50pm 222 6 G 11 85° 24% - - 45° 87° 53.2° - - -
5/23 4:40pm 211 6 G 14 85° 25% - - 45° 87° 53.2° - - -
5/23 4:30pm 215 6 G 13 84° 26% - - 46° 87° 53.2° - - -
5/23 4:20pm 222 7 G 14 84° 28% - - 47° 87° 53.2° - - -
5/23 4:10pm 220 8 G 14 84° 29% - - 49° 87° 53.2° - - -
5/23 4:00pm 217 6 G 11 84° 31% - - 50° 87° 53.2° - - -
5/23 3:50pm 221 5 G 10 84° 32% - - 51° 87° 53.2° - - -
5/23 3:40pm 219 5 G 10 83° 35% - - 53° 87° 53.2° - - -
5/23 3:30pm 201 7 G 11 82° 37% - - 53° 87° 53.2° - - -
5/23 3:20pm 212 6 G 11 82° 38% - - 54° 87° 53.2° - - -
5/23 3:10pm 229 5 G 11 82° 38% - - 54° 87° 53.2° - - -
5/23 3:00pm 238 4 G 10 83° 38% - - 55° 87° 53.2° - - -
5/23 2:50pm 253 6 G 12 81° 40% - - 55° 87° 53.2° - - -
5/23 2:40pm 254 6 G 12 81° 41% - - 55° 87° 53.2° - - -
5/23 2:30pm 244 6 G 13 80° 42% - - 55° 87° 53.2° - - -
5/23 2:20pm 243 7 G 16 80° 42% - - 56° 87° 53.2° - - -
5/23 2:10pm 232 6 G 14 80° 43% - - 56° 87° 53.2° - - -
5/23 2:00pm 236 6 G 14 80° 44% - - 56° 87° 53.2° - - -
5/23 1:50pm 234 7 G 17 80° 44% - - 56° 87° 53.2° - - -
5/23 1:40pm 239 6 G 15 80° 43% - - 56° 87° 53.2° - - -
5/23 1:30pm 226 7 G 14 80° 44% - - 56° 87° 53.2° - - -
5/23 1:20pm 244 7 G 17 80° 43% - - 55° 87° 53.2° - - -
5/23 1:10pm 239 6 G 13 80° 43% - - 56° 87° 53.2° - - -
5/23 1:00pm 238 5 G 13 80° 43% - - 56° 87° 53.2° - - -
5/23 12:50pm 240 5 G 15 80° 44% - - 56° 87° 53.2° - - -
5/23 12:40pm 221 6 G 15 79° 44% - - 56° 87° 53.2° - - -
5/23 12:30pm 238 6 G 15 80° 43% - - 56° 87° 53.2° - - -
5/23 12:20pm 223 6 G 17 80° 43% - - 56° 87° 53.2° - - -
5/23 12:10pm 232 6 G 18 81° 42% - - 55° 87° 53.2° - - -
5/23 12:00pm 216 7 G 15 81° 42% - - 55° 87° 53.2° - - -
5/23 11:50am 218 6 G 15 82° 40% - - 55° 87° 53.2° - - -
5/23 11:40am 226 5 G 14 83° 37% - - 54° 87° 53.2° - - -
5/23 11:30am 248 6 G 20 84° 33% - - 52° 87° 53.2° - - -
5/23 11:20am 236 5 G 16 86° 28% - - 49° 87° 53.2° - - -
5/23 11:10am 229 5 G 13 86° 27% - - 48° 87° 53.2° - - -
5/23 11:00am 230 5 G 13 86° 27% - - 48° 87° 53.2° - - -
5/23 10:50am 230 4 G 11 86° 28% - - 49° 87° 53.2° - - -
5/23 10:40am 212 5 G 12 85° 27% - - 47° 87° 53.2° - - -
5/23 10:30am 219 5 G 11 85° 24% - - 44° 87° 53.2° - - -
5/23 10:20am 227 3 G 6 86° 23% - - 43° 87° 53.2° - - -
5/23 10:10am 144 1 G 3 85° 24% - - 43° 86.4° 53.2° - - -
5/23 10:00am 299 2 G 4 82° 24% - - 42° 83.4° 53.2° - - -
5/23 9:50am 249 1 G 4 82° 23% - - 41° 83.1° 53.2° - - -
5/23 9:40am 174 2 G 4 79° 29% - - 44° 80.7° 53.2° - - -
5/23 9:30am 166 2 G 3 77° 31% - - 44° 77.9° 53.2° - - -
5/23 9:20am 160 2 G 5 75° 35% - - 45° 75.9° 53.2° - - -
5/23 9:10am 186 3 G 6 73° 40% - - 48° 74.2° 53.2° - - -
5/23 9:00am 177 2 G 4 72° 41% - - 47° 73° 53.2° - - -
5/23 8:50am 167 1 G 4 70° 46% - - 48° 71.1° 53.2° - - -
5/23 8:40am 129 2 G 4 68° 50% - - 49° 69° 53.2° - - -
5/23 8:30am 98 1 G 3 67° 62% - - 54° 67.6° 53.2° - - -
5/23 8:20am 55 1 G 3 64° 76% - - 57° 66.2° 53.2° - - -
5/23 8:10am 49 2 G 3 62° 100% - - 62° 63.1° 53.2° - - -
5/23 8:00am 351 1 G 2 59° 100% - - 59° 60.3° 53.2° - - -
5/23 7:50am 146 1 G 2 58° 100% - - 58° 59.6° 53.2° - - -
5/23 7:40am 214 2 G 4 57° 100% - - 57° 59.6° 53.2° - - -
5/23 7:30am 271 1 G 2 57° 100% - - 57° 59.6° 53.2° - - -
5/23 7:20am 53 0 G 1 56° 100% - - 56° 59.6° 53.2° - - -
5/23 7:10am 334 0 G 1 57° 100% - - 57° 59.6° 53.2° - - -
5/23 7:00am 0 0 G 0 57° 100% - - 57° 59.6° 53.2° - - -
5/23 6:50am 108 1 G 2 56° 100% - - 56° 59.6° 53.2° - - -
5/23 6:40am 119 0 G 1 56° 100% - - 56° 59.6° 53.2° - - -
5/23 6:30am 85 1 G 2 55° 100% - - 55° 59.6° 53.2° - - -
5/23 6:20am 51 1 G 2 54° 100% - - 54° 59.6° 53.2° - - -
5/23 6:10am 16 1 G 2 54° 100% - - 54° 59.6° 53.2° - - -
5/23 6:00am 41 0 G 1 54° 100% - - 54° 59.6° 53.2° - - -